Time;durP1;ratioP1;P1;durP2;ratioP2;P2;SDS_P1;SDS_P2;PMS_P1;PMS_P2;Temp;Humidity;BMP_temperature;BMP_pressure;BME280_temperature;BME280_humidity;BME280_pressure;Samples;Min_cycle;Max_cycle;Signal;HPM_P1;HPM_P2
2023/08/15 00:00:21;;;;;;;7.25;5.38;;;;;;;24.17;51.22;95446.91;5030965;28;20282;-72
2023/08/15 00:02:47;;;;;;;9.27;5.63;;;;;;;24.18;51.21;95453.06;5025836;28;20228;-71
2023/08/15 00:05:13;;;;;;;9.63;5.50;;;;;;;24.18;51.29;95440.50;5038952;28;20224;-71
2023/08/15 00:07:38;;;;;;;9.70;5.25;;;;;;;24.04;51.31;95445.59;5029642;28;20290;-71
2023/08/15 00:10:04;;;;;;;7.20;5.55;;;;;;;24.06;51.41;95442.63;5029811;28;20689;-72
2023/08/15 00:12:30;;;;;;;11.20;5.20;;;;;;;24.02;51.58;95439.72;5026772;28;20257;-70
2023/08/15 00:14:56;;;;;;;8.57;5.50;;;;;;;24.00;52.28;95436.50;5043294;28;20232;-72
2023/08/15 00:17:22;;;;;;;9.30;5.47;;;;;;;24.04;51.64;95432.22;5053585;28;20290;-71
2023/08/15 00:19:47;;;;;;;8.52;5.45;;;;;;;24.02;51.82;95433.56;5045076;28;20240;-71
2023/08/15 00:22:13;;;;;;;9.70;5.55;;;;;;;23.97;52.26;95429.03;5029999;28;20224;-72
2023/08/15 00:24:39;;;;;;;8.25;5.72;;;;;;;23.83;51.98;95429.84;5012600;28;20813;-72
2023/08/15 00:27:04;;;;;;;7.82;5.63;;;;;;;23.75;51.82;95420.50;5044230;28;20294;-72
2023/08/15 00:29:30;;;;;;;7.40;5.55;;;;;;;23.81;52.04;95424.75;5032616;28;20229;-71
2023/08/15 00:31:55;;;;;;;11.80;5.95;;;;;;;23.60;52.93;95420.50;5026920;28;20252;-71
2023/08/15 00:34:21;;;;;;;12.73;5.70;;;;;;;23.41;53.36;95419.44;5053993;28;20217;-69
2023/08/15 00:36:46;;;;;;;11.13;5.78;;;;;;;23.36;53.99;95406.06;5017327;28;20339;-71
2023/08/15 00:39:12;;;;;;;11.65;6.10;;;;;;;23.37;53.80;95402.34;5020149;28;20232;-71
2023/08/15 00:41:37;;;;;;;11.32;5.50;;;;;;;23.25;55.62;95396.44;5044908;28;20319;-72
2023/08/15 00:44:04;;;;;;;11.27;5.82;;;;;;;23.07;57.15;95386.28;5030218;28;20382;-75
2023/08/15 00:46:29;;;;;;;10.35;5.68;;;;;;;22.99;57.32;95392.13;5027127;28;20253;-75
2023/08/15 00:48:55;;;;;;;12.95;5.63;;;;;;;22.84;58.11;95387.56;5047224;28;20682;-74
2023/08/15 00:51:21;;;;;;;11.63;6.00;;;;;;;22.80;58.15;95397.19;5038358;28;20236;-75
2023/08/15 00:53:46;;;;;;;11.23;6.00;;;;;;;22.68;58.69;95397.41;5030105;28;21100;-75
2023/08/15 00:56:12;;;;;;;9.18;5.75;;;;;;;22.52;59.56;95390.38;5027932;28;20232;-75
2023/08/15 00:58:38;;;;;;;10.27;5.70;;;;;;;22.57;58.58;95384.28;5024376;28;20623;-75
2023/08/15 01:01:03;;;;;;;10.00;6.00;;;;;;;22.52;58.68;95384.25;5018766;28;20241;-76
2023/08/15 01:03:29;;;;;;;10.35;6.00;;;;;;;22.41;59.31;95378.06;5024895;28;20224;-74
2023/08/15 01:05:55;;;;;;;7.55;5.60;;;;;;;22.44;59.47;95380.22;5038164;28;20229;-75
2023/08/15 01:08:21;;;;;;;9.88;5.78;;;;;;;22.44;60.15;95372.22;5027817;28;20222;-75
2023/08/15 01:10:46;;;;;;;12.10;5.72;;;;;;;22.43;59.38;95365.28;5028151;28;20232;-74
2023/08/15 01:13:20;;;;;;;8.77;5.57;;;;;;;22.33;58.93;95367.91;5037962;28;20225;-71
2023/08/15 01:15:49;;;;;;;8.98;5.40;;;;;;;22.29;60.02;95360.69;5044599;28;20697;-70
2023/08/15 01:18:26;;;;;;;9.00;5.50;;;;;;;22.33;59.71;95356.47;5011368;28;20324;-71
2023/08/15 01:20:51;;;;;;;11.20;5.50;;;;;;;22.30;59.49;95359.63;5028890;28;20314;-72
2023/08/15 01:23:17;;;;;;;9.65;5.80;;;;;;;22.30;59.08;95360.44;5026714;28;20647;-71
2023/08/15 01:25:43;;;;;;;10.10;5.22;;;;;;;22.25;59.85;95360.41;5027008;28;20228;-70
2023/08/15 01:28:12;;;;;;;9.85;5.50;;;;;;;22.25;60.06;95363.09;5037729;28;20275;-71
2023/08/15 01:30:44;;;;;;;10.18;5.57;;;;;;;22.36;59.76;95367.38;5029165;28;20259;-71
2023/08/15 01:33:19;;;;;;;8.60;5.57;;;;;;;22.37;59.80;95358.34;5026866;28;20237;-71
2023/08/15 01:35:46;;;;;;;8.48;5.32;;;;;;;22.38;60.28;95359.91;5028854;28;20718;-71
2023/08/15 01:38:34;;;;;;;10.27;5.82;;;;;;;22.45;59.58;95357.03;5042614;28;20367;-71
2023/08/15 01:41:00;;;;;;;8.73;5.40;;;;;;;22.49;59.00;95360.75;5049650;28;20322;-71
2023/08/15 01:43:26;;;;;;;9.60;5.18;;;;;;;22.54;57.71;95355.44;5027403;28;20730;-71
2023/08/15 01:45:51;;;;;;;7.82;5.45;;;;;;;;;;5036831;28;20787;-71
2023/08/15 01:48:17;;;;;;;9.68;5.82;;;;;;;22.72;57.21;95353.09;5048793;28;20613;-71
2023/08/15 01:50:42;;;;;;;8.27;5.50;;;;;;;22.84;57.21;95352.84;5032361;28;20255;-70
2023/08/15 01:53:08;;;;;;;8.98;5.70;;;;;;;22.61;56.52;95346.16;5028705;28;20758;-71
2023/08/15 01:55:33;;;;;;;7.97;5.35;;;;;;;22.65;57.32;95341.88;5021420;28;20264;-70
2023/08/15 01:57:59;;;;;;;8.57;5.47;;;;;;;22.62;57.21;95345.06;5028089;28;20632;-71
2023/08/15 02:00:24;;;;;;;12.98;6.13;;;;;;;22.53;57.30;95348.50;5041038;28;20282;-71
2023/08/15 02:02:50;;;;;;;9.07;5.57;;;;;;;22.52;57.20;95347.69;5028898;28;20221;-71
2023/08/15 02:05:16;;;;;;;9.55;5.10;;;;;;;22.43;57.95;95337.78;5036320;28;20611;-71
2023/08/15 02:07:41;;;;;;;10.40;5.68;;;;;;;22.31;58.65;95338.03;5020778;28;20228;-70
2023/08/15 02:10:07;;;;;;;9.63;6.03;;;;;;;22.32;58.96;95336.97;5044523;28;20590;-71
2023/08/15 02:12:33;;;;;;;15.35;6.00;;;;;;;22.35;59.82;95339.13;5026461;28;20234;-71
2023/08/15 02:14:59;;;;;;;13.98;6.00;;;;;;;22.42;59.13;95341.53;4999563;28;20240;-71
2023/08/15 02:17:24;;;;;;;9.40;6.00;;;;;;;22.46;59.65;95338.06;5011754;28;21173;-70
2023/08/15 02:19:50;;;;;;;10.45;5.90;;;;;;;22.46;59.33;95346.09;5010752;28;20248;-71
2023/08/15 02:22:15;;;;;;;10.02;6.05;;;;;;;22.42;59.84;95342.34;5035802;28;20266;-69
2023/08/15 02:24:41;;;;;;;11.57;6.25;;;;;;;22.36;60.10;95342.56;5015905;28;20228;-71
2023/08/15 02:27:06;;;;;;;10.77;5.90;;;;;;;22.30;60.80;95340.97;5033790;28;20320;-71
2023/08/15 02:29:32;;;;;;;9.18;6.07;;;;;;;22.37;60.06;95342.31;5023395;28;20290;-72
2023/08/15 02:31:57;;;;;;;12.35;5.95;;;;;;;22.34;59.87;95344.69;5047231;28;20233;-71
2023/08/15 02:34:23;;;;;;;9.85;5.85;;;;;;;22.40;60.02;95341.00;5017894;28;20218;-69
2023/08/15 02:36:48;;;;;;;11.27;5.97;;;;;;;22.34;60.42;95348.19;5009505;28;20232;-69
2023/08/15 02:39:16;;;;;;;9.60;6.10;;;;;;;22.39;59.82;95347.38;5020418;28;20228;-70
2023/08/15 02:41:42;;;;;;;11.45;6.00;;;;;;;22.29;59.95;95342.00;5030932;28;20656;-70
2023/08/15 02:44:07;;;;;;;10.40;6.18;;;;;;;22.28;60.75;95349.25;5015898;28;20763;-71
2023/08/15 02:46:33;;;;;;;8.23;5.90;;;;;;;22.16;61.38;95348.66;5043541;28;20220;-70
2023/08/15 02:48:59;;;;;;;11.23;5.85;;;;;;;22.13;61.56;95341.97;5061897;28;20321;-71
2023/08/15 02:51:24;;;;;;;9.63;6.07;;;;;;;22.01;62.49;95343.25;5017373;28;20233;-70
2023/08/15 02:53:50;;;;;;;9.32;5.88;;;;;;;22.12;61.93;95337.69;5010641;28;20328;-70
2023/08/15 02:56:15;;;;;;;11.32;6.10;;;;;;;22.05;62.36;95344.31;5014300;28;20235;-71
2023/08/15 02:58:41;;;;;;;12.32;6.05;;;;;;;22.03;62.43;95341.13;5058184;28;20833;-70
2023/08/15 03:01:07;;;;;;;12.25;6.00;;;;;;;21.91;62.22;95333.34;5040811;28;20226;-71
2023/08/15 03:03:33;;;;;;;10.43;6.07;;;;;;;21.95;62.45;95334.41;5023278;28;20228;-71
2023/08/15 03:06:02;;;;;;;11.57;6.32;;;;;;;21.93;61.47;95333.06;5011185;28;20237;-71
2023/08/15 03:08:27;;;;;;;7.97;6.05;;;;;;;21.94;61.90;95326.69;5037563;28;20225;-72
2023/08/15 03:10:53;;;;;;;8.18;5.90;;;;;;;21.88;62.78;95341.84;5036208;28;20279;-71
2023/08/15 03:13:19;;;;;;;10.40;6.40;;;;;;;21.91;61.77;95343.19;5017323;28;20221;-71
2023/08/15 03:15:55;;;;;;;10.32;5.65;;;;;;;21.77;61.88;95337.50;5019309;28;20312;-70
2023/08/15 03:18:21;;;;;;;11.23;5.78;;;;;;;21.81;62.15;95343.91;5032985;28;20223;-71
2023/08/15 03:21:02;;;;;;;7.65;5.82;;;;;;;21.88;62.48;95352.50;5044606;28;20237;-71
2023/08/15 03:23:28;;;;;;;10.10;5.90;;;;;;;21.92;62.09;95358.94;5017875;28;20233;-70
2023/08/15 03:25:54;;;;;;;8.60;6.05;;;;;;;21.95;62.04;95354.94;5011718;28;20237;-71
2023/08/15 03:28:20;;;;;;;10.30;6.30;;;;;;;21.95;62.45;95339.75;5030164;28;20264;-70
2023/08/15 03:30:45;;;;;;;10.30;6.10;;;;;;;22.01;62.34;95346.72;5013346;28;20249;-70
2023/08/15 03:33:11;;;;;;;9.65;6.00;;;;;;;21.93;62.54;95351.72;5039949;28;20228;-71
2023/08/15 03:35:36;;;;;;;8.20;6.07;;;;;;;22.03;61.86;95349.13;5033075;28;20241;-71
2023/08/15 03:38:02;;;;;;;10.40;6.53;;;;;;;22.00;62.36;95360.28;5036863;28;20261;-71
2023/08/15 03:40:28;;;;;;;10.13;6.22;;;;;;;22.00;62.29;95352.28;5025072;28;20229;-70
2023/08/15 03:42:53;;;;;;;11.50;6.63;;;;;;;22.06;62.78;95345.94;5010096;28;20225;-72
2023/08/15 03:45:18;;;;;;;11.68;6.45;;;;;;;21.89;63.99;95354.13;5055310;28;20288;-71
2023/08/15 03:47:44;;;;;;;11.20;6.40;;;;;;;21.99;63.55;95353.38;5024440;28;20299;-70
2023/08/15 03:50:10;;;;;;;11.30;6.20;;;;;;;21.99;63.53;95351.53;5045043;28;20238;-71
2023/08/15 03:52:35;;;;;;;14.07;6.45;;;;;;;21.95;63.79;95352.28;5016544;28;20240;-71
2023/08/15 03:55:01;;;;;;;11.68;6.10;;;;;;;21.86;64.34;95353.84;5049487;28;20691;-71
2023/08/15 03:57:27;;;;;;;10.98;6.30;;;;;;;21.89;64.62;95354.13;5028185;28;20653;-70
2023/08/15 03:59:53;;;;;;;13.05;6.30;;;;;;;21.90;65.02;95360.28;5014407;28;20229;-71
2023/08/15 04:02:18;;;;;;;9.77;6.53;;;;;;;21.93;65.32;95349.88;5015978;28;20229;-71
2023/08/15 04:04:44;;;;;;;12.60;6.78;;;;;;;21.95;64.78;95349.59;5042545;28;20220;-71
2023/08/15 04:07:09;;;;;;;13.00;6.60;;;;;;;21.96;64.88;95352.03;5024338;28;20236;-71
2023/08/15 04:09:35;;;;;;;10.77;6.47;;;;;;;22.00;64.87;95357.63;5035089;28;20317;-70
2023/08/15 04:12:01;;;;;;;9.93;6.68;;;;;;;21.89;65.10;95364.00;5029405;28;20245;-71
2023/08/15 04:14:27;;;;;;;10.63;6.50;;;;;;;22.00;65.08;95358.44;5035972;28;20237;-70
2023/08/15 04:16:53;;;;;;;10.43;6.30;;;;;;;22.03;64.86;95351.78;5020762;28;20242;-71
2023/08/15 04:19:18;;;;;;;10.57;6.50;;;;;;;22.05;63.78;95355.00;5011843;28;20282;-71
2023/08/15 04:21:44;;;;;;;13.00;6.30;;;;;;;22.12;64.04;95359.03;5042941;28;20225;-71
2023/08/15 04:24:10;;;;;;;10.43;6.40;;;;;;;22.05;63.78;95355.81;5029151;28;20225;-72
2023/08/15 04:26:35;;;;;;;12.93;6.47;;;;;;;22.09;63.48;95364.09;5037217;28;20229;-71
2023/08/15 04:29:01;;;;;;;12.73;6.55;;;;;;;22.13;63.49;95352.66;5036510;28;20242;-70
2023/08/15 04:31:27;;;;;;;11.40;5.97;;;;;;;22.20;63.09;95355.06;5014600;28;20233;-70
2023/08/15 04:33:52;;;;;;;11.13;6.00;;;;;;;22.12;62.46;95360.88;5052597;28;20264;-72
2023/08/15 04:36:18;;;;;;;8.23;5.72;;;;;;;22.18;63.09;95357.19;5048191;28;20237;-71
2023/08/15 04:38:43;;;;;;;12.30;6.90;;;;;;;22.22;61.64;95365.47;5028833;28;20237;-71
2023/08/15 04:41:09;;;;;;;11.10;6.32;;;;;;;22.22;61.63;95370.78;5037859;28;20248;-71
2023/08/15 04:43:34;;;;;;;13.20;7.25;;;;;;;22.33;61.90;95380.47;5052589;28;20233;-71
2023/08/15 04:46:00;;;;;;;12.70;5.90;;;;;;;22.45;58.39;95389.03;5046518;28;20248;-71
2023/08/15 04:48:25;;;;;;;12.48;5.85;;;;;;;22.46;58.13;95386.09;5054638;28;20638;-72
2023/08/15 04:50:51;;;;;;;10.48;5.80;;;;;;;22.49;58.04;95382.09;5037402;28;20244;-71
2023/08/15 04:53:16;;;;;;;10.63;5.07;;;;;;;22.54;57.28;95396.28;5048078;28;20221;-72
2023/08/15 04:55:42;;;;;;;10.90;5.68;;;;;;;22.57;57.31;95395.72;5018609;28;20320;-72
2023/08/15 04:58:09;;;;;;;13.73;5.70;;;;;;;22.58;57.81;95385.88;5029427;28;20228;-71
2023/08/15 05:00:35;;;;;;;11.75;5.50;;;;;;;22.61;58.24;95390.72;5040502;28;20303;-71
2023/08/15 05:03:01;;;;;;;8.10;5.60;;;;;;;22.54;58.36;95385.59;5029500;28;20221;-72
2023/08/15 05:05:26;;;;;;;9.50;5.32;;;;;;;22.62;58.00;95390.44;5032208;28;20232;-72
2023/08/15 05:07:52;;;;;;;11.27;5.35;;;;;;;22.60;57.31;95391.75;5020360;28;20271;-72
2023/08/15 05:10:17;;;;;;;9.68;5.40;;;;;;;22.57;57.31;95401.06;5051518;28;20230;-71
2023/08/15 05:12:43;;;;;;;10.57;5.00;;;;;;;22.69;58.10;95403.53;5022948;28;20765;-72
2023/08/15 05:15:09;;;;;;;11.10;5.60;;;;;;;22.66;59.40;95412.88;5044881;28;20240;-72
2023/08/15 05:17:35;;;;;;;12.45;5.78;;;;;;;22.50;61.09;95405.03;5058408;28;20241;-73
2023/08/15 05:20:01;;;;;;;14.63;5.75;;;;;;;22.39;64.45;95408.75;5027872;28;20248;-71
2023/08/15 05:22:27;;;;;;;12.75;5.75;;;;;;;22.27;66.98;95413.50;5035482;28;20224;-72
2023/08/15 05:24:52;;;;;;;8.73;5.22;;;;;;;22.25;66.87;95416.44;5013561;28;20240;-71
2023/08/15 05:27:18;;;;;;;11.13;5.70;;;;;;;22.16;66.92;95412.66;5011202;28;20317;-72
2023/08/15 05:29:44;;;;;;;12.10;5.80;;;;;;;22.06;68.34;95410.75;5010816;28;20221;-70
2023/08/15 05:32:09;;;;;;;12.90;5.75;;;;;;;21.96;68.63;95413.34;5029984;28;20237;-72
2023/08/15 05:34:35;;;;;;;14.60;6.13;;;;;;;21.94;67.71;95412.00;5057844;28;20244;-72
2023/08/15 05:37:01;;;;;;;16.70;6.65;;;;;;;22.02;68.13;95401.63;5045752;28;20279;-71
2023/08/15 05:39:26;;;;;;;12.68;6.40;;;;;;;22.14;65.68;95406.75;5066482;28;20256;-71
2023/08/15 05:41:52;;;;;;;9.45;6.40;;;;;;;22.04;66.30;95404.06;5020121;28;20236;-71
2023/08/15 05:44:17;;;;;;;14.82;6.20;;;;;;;22.12;65.85;95406.22;5021177;28;20234;-71
2023/08/15 05:46:43;;;;;;;13.43;6.15;;;;;;;22.19;66.50;95411.34;5048437;28;20733;-72
2023/08/15 05:49:09;;;;;;;13.55;6.07;;;;;;;22.32;62.57;95409.00;5027174;28;20230;-72
2023/08/15 05:51:34;;;;;;;10.57;5.90;;;;;;;22.33;62.64;95415.13;5048687;28;20237;-71
2023/08/15 05:54:00;;;;;;;10.93;6.00;;;;;;;22.29;63.12;95420.19;5026101;28;20217;-72
2023/08/15 05:56:25;;;;;;;13.63;6.20;;;;;;;22.27;63.55;95414.31;5016842;28;20264;-73
2023/08/15 05:58:51;;;;;;;11.77;5.97;;;;;;;22.27;64.20;95416.16;5026402;28;20677;-72
2023/08/15 06:01:16;;;;;;;11.73;6.15;;;;;;;22.19;63.27;95422.00;5026531;28;20324;-72
2023/08/15 06:03:42;;;;;;;11.27;5.95;;;;;;;22.34;62.87;95416.72;5059820;28;20315;-73
2023/08/15 06:06:07;;;;;;;12.60;6.20;;;;;;;22.40;62.09;95410.38;5028603;28;20233;-72
2023/08/15 06:08:33;;;;;;;10.18;6.15;;;;;;;22.43;62.57;95420.50;5013768;28;20228;-72
2023/08/15 06:10:59;;;;;;;13.60;5.60;;;;;;;22.50;62.60;95423.72;5034060;28;20302;-73
2023/08/15 06:13:24;;;;;;;9.13;5.72;;;;;;;22.53;62.05;95417.88;5035917;28;20230;-72
2023/08/15 06:15:51;;;;;;;10.05;5.50;;;;;;;22.57;61.95;95418.97;5019881;28;20253;-72
2023/08/15 06:18:17;;;;;;;12.48;6.07;;;;;;;22.61;62.19;95420.88;5045583;28;20232;-71
2023/08/15 06:20:43;;;;;;;11.68;5.75;;;;;;;22.58;62.41;95424.03;5031156;28;20233;-71
2023/08/15 06:23:09;;;;;;;13.85;7.10;;;;;;;22.61;62.51;95420.06;5035127;28;20273;-71
2023/08/15 06:25:35;;;;;;;13.77;6.43;;;;;;;22.59;62.75;95424.84;5030407;28;20220;-71
2023/08/15 06:28:00;;;;;;;12.70;5.70;;;;;;;22.58;63.18;95436.56;5012410;28;20225;-71
2023/08/15 06:30:26;;;;;;;8.65;5.72;;;;;;;22.54;62.79;95430.97;5036944;28;20233;-71
2023/08/15 06:32:51;;;;;;;12.95;6.00;;;;;;;22.55;63.27;95445.09;5029186;28;20222;-71
2023/08/15 06:35:17;;;;;;;11.60;5.43;;;;;;;22.49;63.11;95441.63;5026563;28;20275;-72
2023/08/15 06:37:42;;;;;;;9.00;5.57;;;;;;;22.51;63.37;95441.34;5031148;28;20915;-75
2023/08/15 06:40:09;;;;;;;15.80;5.43;;;;;;;22.47;63.94;95443.75;5036879;28;20551;-70
2023/08/15 06:42:34;;;;;;;16.27;5.57;;;;;;;22.42;64.58;95443.72;5025811;28;20705;-71
2023/08/15 06:45:08;;;;;;;12.60;5.65;;;;;;;22.49;64.44;95446.94;5036957;28;20218;-71
2023/08/15 06:47:34;;;;;;;13.75;5.78;;;;;;;22.44;63.97;95443.44;5045607;28;20227;-72
2023/08/15 06:50:00;;;;;;;10.05;5.57;;;;;;;22.49;64.21;95441.63;5037892;28;20229;-70
2023/08/15 06:52:25;;;;;;;15.38;5.72;;;;;;;22.55;64.26;95448.56;5047281;28;20221;-71
2023/08/15 06:54:51;;;;;;;10.27;5.40;;;;;;;22.48;64.70;95445.34;5013508;28;20245;-74
2023/08/15 06:57:16;;;;;;;11.32;5.90;;;;;;;22.43;64.98;95437.31;5032452;28;20291;-72
2023/08/15 06:59:42;;;;;;;10.40;5.90;;;;;;;22.42;65.49;95446.41;5023569;28;20621;-70
2023/08/15 07:02:07;;;;;;;12.43;5.82;;;;;;;22.39;65.30;95446.91;5027962;28;20233;-71
2023/08/15 07:04:36;;;;;;;9.63;5.90;;;;;;;22.34;65.69;95448.72;5038218;28;20233;-71
2023/08/15 07:07:03;;;;;;;16.63;9.93;;;;;;;22.34;66.13;95448.72;5015405;28;20709;-72
2023/08/15 07:09:29;;;;;;;16.95;6.90;;;;;;;22.46;65.42;95447.47;5030608;28;20324;-71
2023/08/15 07:11:56;;;;;;;15.65;8.23;;;;;;;22.34;65.88;95444.22;5015328;28;21057;-72
2023/08/15 07:14:22;;;;;;;14.48;7.07;;;;;;;22.45;65.64;95448.50;5022999;28;20234;-72
2023/08/15 07:16:48;;;;;;;10.85;5.78;;;;;;;22.46;64.98;95447.47;5015171;28;20283;-71
2023/08/15 07:19:13;;;;;;;14.70;6.43;;;;;;;22.39;66.36;95456.75;5015146;28;20227;-70
2023/08/15 07:21:41;;;;;;;12.25;6.30;;;;;;;22.39;65.75;95444.22;5028207;28;20233;-71
2023/08/15 07:24:07;;;;;;;14.90;6.80;;;;;;;22.41;66.24;95449.31;5026853;28;20233;-71
2023/08/15 07:26:32;;;;;;;11.73;6.10;;;;;;;22.50;66.06;95453.88;5052741;28;20253;-72
2023/08/15 07:28:58;;;;;;;11.85;5.85;;;;;;;22.41;66.27;95446.63;5034348;28;20230;-71
2023/08/15 07:31:23;;;;;;;16.27;6.30;;;;;;;22.43;65.81;95439.97;5021797;28;20248;-70
2023/08/15 07:33:49;;;;;;;13.55;6.43;;;;;;;22.44;66.46;95441.59;5032242;28;20237;-71
2023/08/15 07:36:14;;;;;;;13.20;6.43;;;;;;;22.43;64.98;95450.66;5047767;28;20980;-71
2023/08/15 07:38:40;;;;;;;13.45;6.25;;;;;;;22.47;65.27;95453.63;5032246;28;20247;-71
2023/08/15 07:41:06;;;;;;;10.85;6.30;;;;;;;22.36;66.73;95454.59;5017481;28;20240;-72
2023/08/15 07:43:31;;;;;;;11.60;6.25;;;;;;;22.38;65.42;95457.84;5050566;28;20216;-72
2023/08/15 07:45:57;;;;;;;11.07;6.13;;;;;;;22.31;66.40;95460.72;5016182;28;20226;-71
2023/08/15 07:48:22;;;;;;;9.63;6.25;;;;;;;22.24;68.33;95460.16;5014009;28;20224;-71
2023/08/15 07:50:48;;;;;;;13.20;7.13;;;;;;;22.09;69.42;95460.09;5055283;28;20236;-70
2023/08/15 07:53:13;;;;;;;9.40;6.60;;;;;;;22.13;69.52;95453.97;5030359;28;20229;-72
2023/08/15 07:55:39;;;;;;;11.35;6.30;;;;;;;22.18;68.55;95461.19;5020338;28;20315;-72
2023/08/15 07:58:05;;;;;;;9.02;5.60;;;;;;;22.21;69.00;95455.31;5069196;28;20228;-71
2023/08/15 08:00:31;;;;;;;12.73;5.90;;;;;;;22.20;70.72;95456.41;5038851;28;20221;-71
2023/08/15 08:02:56;;;;;;;11.38;5.78;;;;;;;22.08;72.67;95451.28;5046578;28;20275;-72
2023/08/15 08:05:22;;;;;;;8.77;5.47;;;;;;;22.03;73.90;95437.09;5022619;28;20229;-72
2023/08/15 08:07:48;;;;;;;9.52;5.80;;;;;;;22.00;74.26;95440.28;5030272;28;20221;-72
2023/08/15 08:10:13;;;;;;;14.05;6.20;;;;;;;22.07;73.49;95441.66;5030368;28;20250;-71
2023/08/15 08:12:39;;;;;;;10.32;5.93;;;;;;;22.12;72.08;95446.22;5031415;28;20225;-72
2023/08/15 08:15:05;;;;;;;9.35;6.03;;;;;;;22.07;70.86;95441.66;5045695;28;20247;-72
2023/08/15 08:17:31;;;;;;;13.43;6.20;;;;;;;22.10;72.46;95443.00;5064679;28;20360;-71
2023/08/15 08:19:57;;;;;;;10.77;6.13;;;;;;;22.00;77.08;95449.09;5065466;28;20815;-72
2023/08/15 08:22:22;;;;;;;12.77;6.28;;;;;;;21.99;78.72;95447.50;5030785;28;20627;-72
2023/08/15 08:24:50;;;;;;;14.93;6.28;;;;;;;22.06;80.31;95448.06;5030994;28;20712;-72
2023/08/15 08:27:16;;;;;;;11.18;6.22;;;;;;;21.90;82.75;95443.69;5052093;28;20225;-72
2023/08/15 08:29:41;;;;;;;13.82;6.88;;;;;;;21.98;82.84;95435.22;5035562;28;20232;-71
2023/08/15 08:32:07;;;;;;;14.35;6.50;;;;;;;22.06;78.42;95442.75;5029554;28;20252;-72
2023/08/15 08:34:33;;;;;;;12.18;6.28;;;;;;;22.04;77.76;95439.50;5013179;28;20512;-72
2023/08/15 08:36:58;;;;;;;11.18;6.40;;;;;;;22.08;78.79;95435.28;5032270;28;20290;-70
2023/08/15 08:39:24;;;;;;;17.15;9.65;;;;;;;22.15;78.40;95437.72;5065699;28;20290;-71
2023/08/15 08:41:49;;;;;;;14.63;9.98;;;;;;;22.22;77.77;95432.94;5013185;28;20236;-72
2023/08/15 08:44:15;;;;;;;15.38;8.40;;;;;;;22.21;79.85;95431.31;5031099;28;20231;-71
2023/08/15 08:46:40;;;;;;;14.80;7.88;;;;;;;22.07;80.31;95439.00;5045900;28;20225;-71
2023/08/15 08:49:06;;;;;;;12.80;7.68;;;;;;;22.07;79.91;95431.00;5021334;28;20329;-72
2023/08/15 08:51:32;;;;;;;13.65;8.00;;;;;;;22.12;78.76;95431.03;5015072;28;20304;-71
2023/08/15 08:53:57;;;;;;;14.38;7.55;;;;;;;22.16;78.45;95427.84;5051516;28;20773;-72
2023/08/15 08:56:24;;;;;;;13.05;7.78;;;;;;;22.18;75.63;95429.19;5044266;28;20284;-71
2023/08/15 08:58:52;;;;;;;18.00;8.90;;;;;;;22.13;75.84;95431.84;5037564;28;20231;-72
2023/08/15 09:01:19;;;;;;;14.43;8.15;;;;;;;22.15;77.33;95429.72;5008628;28;20229;-71
2023/08/15 09:03:45;;;;;;;13.05;7.28;;;;;;;22.05;78.69;95427.78;5012115;28;20257;-72
2023/08/15 09:06:11;;;;;;;12.32;7.05;;;;;;;22.07;78.74;95427.53;5020758;28;20260;-72
2023/08/15 09:08:36;;;;;;;13.80;7.45;;;;;;;22.15;76.58;95421.72;5029738;28;20275;-71
2023/08/15 09:11:02;;;;;;;15.73;6.97;;;;;;;22.21;75.61;95425.22;5032504;28;20260;-72
2023/08/15 09:13:27;;;;;;;14.95;8.77;;;;;;;22.00;77.60;95426.94;5050756;28;20582;-71
2023/08/15 09:15:58;;;;;;;22.67;12.68;;;;;;;22.01;76.47;95426.72;5012624;28;20732;-72
2023/08/15 09:18:25;;;;;;;15.15;8.30;;;;;;;21.87;79.16;95424.75;5029812;28;20221;-72
2023/08/15 09:20:52;;;;;;;12.00;6.68;;;;;;;22.08;75.06;95419.28;5039853;28;20221;-73
2023/08/15 09:23:17;;;;;;;11.82;7.05;;;;;;;22.12;77.36;95416.88;5041065;28;20235;-72
2023/08/15 09:25:43;;;;;;;13.90;6.97;;;;;;;22.25;75.50;95418.28;5023627;28;20256;-72
2023/08/15 09:28:09;;;;;;;11.02;6.97;;;;;;;22.21;77.03;95426.00;5026836;28;20228;-72
2023/08/15 09:30:34;;;;;;;13.80;7.13;;;;;;;22.38;75.11;95412.50;5060083;28;20369;-71
2023/08/15 09:33:04;;;;;;;12.93;6.90;;;;;;;22.21;76.74;95411.88;5035862;28;20239;-72
2023/08/15 09:35:30;;;;;;;13.88;7.05;;;;;;;22.23;77.50;95410.56;5020749;28;20241;-73
2023/08/15 09:37:56;;;;;;;12.02;6.65;;;;;;;22.44;73.95;95425.59;5053699;28;20222;-72
2023/08/15 09:40:23;;;;;;;13.02;6.50;;;;;;;22.32;76.41;95419.66;5023485;28;20760;-70
2023/08/15 09:42:48;;;;;;;13.80;6.78;;;;;;;22.35;76.09;95413.81;5020094;28;20229;-71
2023/08/15 09:45:15;;;;;;;13.57;6.70;;;;;;;22.28;76.45;95405.25;5011475;28;20230;-71
2023/08/15 09:47:41;;;;;;;8.70;6.43;;;;;;;22.39;75.95;95395.41;5048940;28;20224;-72
2023/08/15 09:50:07;;;;;;;11.70;6.90;;;;;;;22.48;74.19;95402.66;5047884;28;20250;-71
2023/08/15 09:52:39;;;;;;;12.27;6.97;;;;;;;22.53;75.67;95404.53;5033960;28;20722;-71
2023/08/15 09:55:06;;;;;;;9.95;6.60;;;;;;;22.55;76.79;95405.88;5037442;28;20761;-71
2023/08/15 09:57:32;;;;;;;12.77;7.13;;;;;;;22.47;74.87;95408.25;5049175;28;20225;-71
2023/08/15 09:59:58;;;;;;;12.93;6.88;;;;;;;22.43;76.06;95405.28;5017196;28;20235;-70
2023/08/15 10:02:23;;;;;;;12.43;6.90;;;;;;;22.49;75.44;95403.47;5011806;28;20225;-76
2023/08/15 10:05:06;;;;;;;13.13;7.15;;;;;;;22.55;74.12;95397.06;5028139;28;20224;-75
2023/08/15 10:07:32;;;;;;;12.07;7.68;;;;;;;22.60;71.97;95394.41;5047090;28;20220;-75
2023/08/15 10:10:01;;;;;;;12.45;7.03;;;;;;;22.59;73.48;95390.16;5048203;28;20285;-74
2023/08/15 10:12:27;;;;;;;10.15;6.78;;;;;;;22.59;73.86;95400.81;5023167;28;20218;-74
2023/08/15 10:14:53;;;;;;;9.82;6.10;;;;;;;22.57;71.26;95409.06;5018792;28;20252;-75
2023/08/15 10:17:18;;;;;;;9.13;5.75;;;;;;;22.56;67.59;95404.81;5026473;28;20252;-75
2023/08/15 10:19:48;;;;;;;8.77;5.78;;;;;;;22.56;67.49;95414.69;5029098;28;20653;-76
2023/08/15 10:22:17;;;;;;;8.18;5.32;;;;;;;22.49;67.72;95414.13;5022762;28;20236;-75
2023/08/15 10:24:43;;;;;;;14.05;6.10;;;;;;;22.46;68.87;95412.78;5043333;28;20276;-74
2023/08/15 10:27:09;;;;;;;7.95;5.63;;;;;;;22.43;69.32;95413.28;5057315;28;20626;-75
2023/08/15 10:29:51;;;;;;;9.00;5.65;;;;;;;22.47;70.46;95413.59;5019563;28;20235;-76
2023/08/15 10:32:24;;;;;;;9.25;5.78;;;;;;;22.38;67.73;95415.94;5029148;28;20304;-75
2023/08/15 10:34:54;;;;;;;11.57;6.00;;;;;;;22.46;68.69;95415.44;5026058;28;20274;-75
2023/08/15 10:37:30;;;;;;;8.73;5.72;;;;;;;22.52;67.15;95417.06;5019393;28;20232;-74
2023/08/15 10:40:11;;;;;;;10.77;6.10;;;;;;;22.43;68.34;95415.97;5049916;28;20725;-75
2023/08/15 10:43:02;;;;;;;9.15;6.30;;;;;;;22.51;67.84;95412.81;5039592;28;20703;-76
2023/08/15 10:45:35;;;;;;;11.15;5.82;;;;;;;22.54;67.40;95416.81;5056492;28;20240;-76
2023/08/15 10:48:01;;;;;;;9.05;6.10;;;;;;;22.55;67.82;95413.06;5011756;28;20225;-75
2023/08/15 10:50:27;;;;;;;10.27;6.00;;;;;;;22.55;68.92;95421.06;5037543;28;20689;-76
2023/08/15 10:53:05;;;;;;;13.00;6.43;;;;;;;22.57;69.09;95416.31;5031269;28;21025;-75
2023/08/15 10:55:38;;;;;;;12.38;6.47;;;;;;;22.60;69.28;95411.22;5053161;28;20236;-75
2023/08/15 10:58:05;;;;;;;11.50;6.13;;;;;;;22.63;67.96;95416.06;5033429;28;20855;-76
2023/08/15 11:00:31;;;;;;;10.07;6.28;;;;;;;22.54;70.05;95419.47;5046811;28;20238;-75
2023/08/15 11:02:57;;;;;;;10.40;6.00;;;;;;;22.45;69.35;95421.84;5034336;28;20224;-76
2023/08/15 11:05:22;;;;;;;9.75;6.20;;;;;;;22.53;68.44;95421.34;5030280;28;20316;-76
2023/08/15 11:07:48;;;;;;;10.48;6.00;;;;;;;22.61;69.00;95420.88;5014456;28;20231;-75
2023/08/15 11:10:14;;;;;;;10.68;6.13;;;;;;;22.55;69.26;95423.75;5051718;28;20232;-75
2023/08/15 11:12:48;;;;;;;8.98;6.43;;;;;;;22.48;69.10;95415.97;5024767;28;20708;-76
2023/08/15 11:15:14;;;;;;;13.05;6.28;;;;;;;22.51;69.56;95420.81;5018169;28;20228;-76
2023/08/15 11:17:40;;;;;;;9.73;6.32;;;;;;;22.46;69.73;95420.78;5047156;28;20217;-76
2023/08/15 11:20:06;;;;;;;10.50;6.60;;;;;;;22.52;70.23;95419.72;5042220;28;20479;-76
2023/08/15 11:22:32;;;;;;;10.00;6.57;;;;;;;22.53;69.40;95413.34;5015897;28;20229;-76
2023/08/15 11:24:58;;;;;;;10.57;6.75;;;;;;;22.58;69.44;95412.56;5049516;28;20227;-75